Impacts TAF Board INFO
FOR SITUATIONAL AWARENESS. NOT TO BE USED FOR FLIGHT PLANNING PURPOSES.
IDs:

KCLE - Cleveland/Hopkins In, OH, US

Issued at 0300 UTC 22 Nov 2017
Updated at 0342 UTC 22 Nov 2017
Potential Impact None Slight Moderate High
Time<<23/04Z 23/05Z 23/06Z 23/07Z 23/08Z 23/09Z 23/10Z 23/11Z 23/12Z 23/13Z 23/14Z 23/15Z 23/16Z
Type PRVL PRVL
VIS >6 >6
CIG -- --
Cover SCT SCT
FltCat VFR VFR
WX -- --
WDir 310 310
WSpd 8 8
WGst -- --

Raw TAF
KCLE 220300Z 2203/2306 29012G20KT P6SM OVC025
  TEMPO 2203/2205 5SM -SHRA OVC015
  FM220500 30010G18KT P6SM -SHSN OVC035
  FM220800 30010KT P6SM BKN050
  FM221500 31008KT P6SM SCT050


METAR Board
Radar Display
Forecast Discussion

FOR SITUATIONAL AWARENESS. NOT TO BE USED FOR FLIGHT PLANNING PURPOSES.